Terminal Aerodrome Forecast
Issued by NWS Nashville, TN

Home | Current Version | Previous Version | Text Only | Print | Product List | Glossary On
Versions: 1 2 3 4 5 6 7 8 9 10 11 12 13 14 15 16
000
FTUS44 KOHX 020500
TAFCSV
TAF
KCSV 020521Z 0206/0306 VRB04KT 2SM -RA BR OVC002
     FM021000 36006KT 2SM -RA BR OVC002
     FM021200 35005KT 2SM -FZRA BR OVC001
     FM021600 03006KT 4SM -RADZ BR OVC003
     FM021800 04005KT P6SM OVC015
     FM030000 07003KT 4SM BR OVC015=

USA.gov is the U.S. government's official web portal to all federal, state and local government web resources and services.